createdAt,value
2019-02-11T00:04:25.918Z,3.40
2019-02-11T00:10:30.465Z,3.30
2019-02-11T00:16:35.921Z,3.30
2019-02-11T00:22:40.457Z,3.10
2019-02-11T00:28:45.014Z,3.10
2019-02-11T00:34:49.540Z,3.10
2019-02-11T00:40:54.160Z,3.00
2019-02-11T00:47:00.296Z,3.00
2019-02-11T00:53:08.151Z,3.10
2019-02-11T00:59:12.713Z,3.10
2019-02-11T01:05:17.240Z,3.10
2019-02-11T01:11:21.852Z,3.10
2019-02-11T01:17:26.474Z,3.10
2019-02-11T01:23:31.012Z,3.20
2019-02-11T01:29:35.566Z,3.20
2019-02-11T01:35:40.102Z,3.30
2019-02-11T01:41:44.650Z,3.30
2019-02-11T01:47:49.187Z,3.40
2019-02-11T01:53:53.764Z,3.40
2019-02-11T02:06:08.143Z,3.50
2019-02-11T02:12:12.697Z,3.60
2019-02-11T02:18:17.239Z,3.60
2019-02-11T02:24:21.785Z,3.60
2019-02-11T02:30:26.329Z,3.70
2019-02-11T02:36:30.868Z,3.80
2019-02-11T02:42:35.411Z,3.80
2019-02-11T02:48:39.948Z,3.90
2019-02-11T02:54:44.491Z,3.90
2019-02-11T03:00:49.037Z,3.90
2019-02-11T03:06:53.672Z,3.90
2019-02-11T03:12:58.213Z,3.90
2019-02-11T03:19:02.853Z,4.00
2019-02-11T03:25:09.206Z,4.10
2019-02-11T03:31:13.827Z,4.10
2019-02-11T03:37:18.389Z,4.20
2019-02-11T03:43:25.176Z,4.30
2019-02-11T03:49:29.736Z,4.30
2019-02-11T03:55:34.487Z,4.30
2019-02-11T04:01:39.045Z,4.30
2019-02-11T04:07:43.592Z,4.30
2019-02-11T04:13:48.201Z,4.40
2019-02-11T04:19:52.740Z,4.40
2019-02-11T04:25:57.275Z,4.40
2019-02-11T04:32:01.819Z,4.50
2019-02-11T04:38:06.415Z,4.60
2019-02-11T04:44:13.904Z,4.70
2019-02-11T04:50:18.807Z,4.70
2019-02-11T04:56:27.066Z,4.60
2019-02-11T05:02:31.630Z,4.50
2019-02-11T05:08:36.180Z,4.50
2019-02-11T05:14:43.970Z,4.40
2019-02-11T05:20:48.194Z,4.50
2019-02-11T05:26:52.740Z,4.50
2019-02-11T05:32:57.371Z,4.30
2019-02-11T05:39:02.131Z,4.40
2019-02-11T05:45:08.768Z,4.40
2019-02-11T05:51:13.310Z,4.40
2019-02-11T05:57:17.920Z,4.30
2019-02-11T06:03:22.481Z,4.30
2019-02-11T06:09:29.001Z,4.30
2019-02-11T06:15:33.569Z,4.10
2019-02-11T06:21:38.113Z,4.20
2019-02-11T06:27:42.658Z,4.30
2019-02-11T06:33:47.214Z,4.30
2019-02-11T06:39:53.403Z,4.40
2019-02-11T06:45:57.938Z,4.60
2019-02-11T06:52:02.657Z,4.60
2019-02-11T06:58:07.199Z,4.60
2019-02-11T07:04:11.753Z,4.50
2019-02-11T07:10:16.298Z,4.60
2019-02-11T07:16:20.845Z,4.60
2019-02-11T07:22:25.375Z,4.70
2019-02-11T07:28:29.913Z,4.70
2019-02-11T07:34:37.274Z,4.80
2019-02-11T07:40:41.821Z,4.80
2019-02-11T07:46:46.543Z,4.80
2019-02-11T07:52:51.096Z,4.80
2019-02-11T07:58:55.636Z,4.80
2019-02-11T08:05:01.675Z,4.90
2019-02-11T08:11:06.223Z,4.90
2019-02-11T08:17:10.784Z,5.00
2019-02-11T08:23:16.282Z,4.90
2019-02-11T08:29:20.830Z,4.90
2019-02-11T08:35:25.445Z,4.70
2019-02-11T08:41:29.994Z,4.50
2019-02-11T08:47:35.800Z,4.40
2019-02-11T08:53:43.576Z,4.30
2019-02-11T08:59:48.183Z,4.30
2019-02-11T09:05:53.861Z,4.20
2019-02-11T09:11:58.410Z,4.10
2019-02-11T09:18:03.445Z,4.10
2019-02-11T09:24:08.123Z,4.10
2019-02-11T09:30:16.289Z,4.20
2019-02-11T09:36:20.834Z,4.30
2019-02-11T09:42:26.590Z,4.40
2019-02-11T09:48:31.148Z,4.40
2019-02-11T09:54:35.743Z,4.40
2019-02-11T10:00:40.293Z,4.60
2019-02-11T10:06:44.838Z,5.00
2019-02-11T10:12:49.372Z,5.50
2019-02-11T10:18:55.820Z,5.50
2019-02-11T10:25:00.371Z,5.50
2019-02-11T10:31:05.055Z,5.30
2019-02-11T10:37:09.671Z,5.30
2019-02-11T10:43:14.208Z,5.40
2019-02-11T10:49:18.774Z,5.50
2019-02-11T10:55:23.789Z,5.60
2019-02-11T11:01:28.398Z,5.70
2019-02-11T11:07:34.788Z,5.80
2019-02-11T11:13:39.672Z,6.10
2019-02-11T11:19:44.220Z,6.20
2019-02-11T11:25:48.899Z,6.30
2019-02-11T11:31:53.474Z,6.10
2019-02-11T11:37:58.971Z,6.10
2019-02-11T11:44:03.647Z,6.20
2019-02-11T11:50:10.367Z,6.40
2019-02-11T11:56:15.069Z,6.50
2019-02-11T12:02:19.787Z,6.80
2019-02-11T12:08:24.393Z,6.70
2019-02-11T12:14:29.000Z,6.70
2019-02-11T12:20:34.387Z,6.30
2019-02-11T12:26:39.347Z,5.10
2019-02-11T12:32:43.953Z,4.80
2019-02-11T12:38:48.571Z,5.30
2019-02-11T12:44:53.124Z,5.50
2019-02-11T12:50:57.671Z,6.00
2019-02-11T12:57:05.517Z,6.10
2019-02-11T13:03:10.059Z,5.80
2019-02-11T13:09:14.716Z,5.60
2019-02-11T13:15:56.840Z,5.50
2019-02-11T13:21:28.651Z,5.40
2019-02-11T13:27:33.190Z,5.40
2019-02-11T13:33:37.724Z,6.20
2019-02-11T13:39:43.588Z,6.80
2019-02-11T13:45:48.223Z,6.70
2019-02-11T13:51:52.811Z,6.70
2019-02-11T13:57:57.828Z,6.80
2019-02-11T14:04:02.499Z,6.70
2019-02-11T14:10:07.952Z,7.00
2019-02-11T14:16:12.505Z,7.30
2019-02-11T14:22:17.039Z,7.40
2019-02-11T14:28:21.677Z,7.10
2019-02-11T14:34:26.217Z,6.70
2019-02-11T14:40:32.404Z,6.60
2019-02-11T14:46:36.936Z,6.40
2019-02-11T14:52:41.548Z,6.20
2019-02-11T14:58:46.094Z,6.60
2019-02-11T15:04:50.650Z,6.80
2019-02-11T15:10:57.621Z,7.10
2019-02-11T15:17:04.477Z,6.70
2019-02-11T15:23:09.001Z,6.40
2019-02-11T15:29:13.537Z,6.10
2019-02-11T15:35:18.151Z,6.10
2019-02-11T15:41:22.690Z,6.00
2019-02-11T15:47:27.257Z,5.90
2019-02-11T15:53:35.294Z,5.90
2019-02-11T15:59:39.906Z,5.90
2019-02-11T16:05:49.653Z,5.80
2019-02-11T16:11:54.304Z,5.70
2019-02-11T16:17:58.860Z,5.40
2019-02-11T16:24:03.422Z,5.20
2019-02-11T16:30:15.368Z,5.00
2019-02-11T16:36:19.898Z,4.90
2019-02-11T16:42:24.461Z,4.90
2019-02-11T16:48:31.770Z,4.90
2019-02-11T16:54:36.327Z,4.80
2019-02-11T17:00:41.532Z,4.80
2019-02-11T17:06:46.075Z,4.70
2019-02-11T17:12:50.627Z,4.60
2019-02-11T17:18:55.251Z,4.50
2019-02-11T17:24:59.800Z,4.40
2019-02-11T17:31:04.413Z,4.30
2019-02-11T17:37:09.041Z,4.10
2019-02-11T17:43:13.583Z,4.00
2019-02-11T17:49:18.132Z,4.00
2019-02-11T17:55:22.809Z,4.10
2019-02-11T18:01:27.502Z,4.10
2019-02-11T18:07:32.042Z,4.00
2019-02-11T18:13:36.589Z,3.90
2019-02-11T18:19:41.142Z,3.90
2019-02-11T18:25:45.836Z,4.00
2019-02-11T18:31:50.384Z,3.90
2019-02-11T18:37:54.926Z,3.80
2019-02-11T18:43:59.481Z,4.00
2019-02-11T18:50:05.977Z,4.10
2019-02-11T18:56:10.535Z,4.10
2019-02-11T19:02:15.273Z,4.10
2019-02-11T19:08:19.836Z,4.20
2019-02-11T19:14:24.472Z,4.20
2019-02-11T19:20:33.703Z,4.20
2019-02-11T19:26:38.266Z,4.10
2019-02-11T19:32:43.479Z,4.00
2019-02-11T19:38:48.024Z,4.10
2019-02-11T19:44:52.584Z,4.10
2019-02-11T19:50:57.123Z,4.20
2019-02-11T19:57:01.706Z,4.20
2019-02-11T20:03:06.345Z,4.20
2019-02-11T20:09:10.954Z,4.20
2019-02-11T20:15:22.250Z,4.30
2019-02-11T20:21:26.777Z,4.30
2019-02-11T20:27:31.381Z,4.30
2019-02-11T20:33:35.951Z,4.30
2019-02-11T20:39:42.070Z,4.40
2019-02-11T20:45:46.968Z,4.40
2019-02-11T20:51:53.706Z,4.40
2019-02-11T20:58:01.959Z,4.30
2019-02-11T21:04:06.865Z,4.40
2019-02-11T21:10:14.859Z,4.40
2019-02-11T21:16:19.445Z,4.40
2019-02-11T21:22:24.135Z,4.20
2019-02-11T21:28:28.785Z,4.20
2019-02-11T21:34:33.331Z,4.00
2019-02-11T21:40:37.891Z,3.80
2019-02-11T21:46:42.443Z,3.80
2019-02-11T21:52:47.073Z,3.80
2019-02-11T21:58:51.645Z,3.70
2019-02-11T22:04:56.208Z,3.70
2019-02-11T22:11:00.757Z,3.70
2019-02-11T22:17:05.396Z,3.70
2019-02-11T22:23:10.007Z,3.70
2019-02-11T22:29:15.114Z,3.80
2019-02-11T22:35:19.672Z,3.90
2019-02-11T22:41:24.210Z,3.90
2019-02-11T22:47:28.753Z,4.00
2019-02-11T22:53:33.302Z,4.00
2019-02-11T22:59:37.854Z,4.10
2019-02-11T23:05:42.677Z,4.10
2019-02-11T23:11:47.294Z,4.10
2019-02-11T23:17:51.828Z,4.10
2019-02-11T23:23:56.363Z,4.10
2019-02-11T23:30:02.378Z,4.10
2019-02-11T23:36:06.930Z,4.10
2019-02-11T23:42:11.475Z,4.00
2019-02-11T23:48:16.025Z,4.00
2019-02-11T23:54:20.571Z,4.10
